Terminal Aerodrome Forecast
Issued by NWS Northern Indiana

Home | Current Version | Previous Version | Text Only | Print | Product List | Glossary On
Versions: 1 2 3 4 5 6 7 8 9 10 11 12 13
000
FTUS43 KIWX 291700
TAFFWA
TAF
KFWA 291734Z 2918/3018 30005KT P6SM SKC
     FM300900 34010KT 5SM BR VCSH OVC020
     FM301200 33007KT P6SM OVC010=

USA.gov is the U.S. government's official web portal to all federal, state and local government web resources and services.